createdAt,value
2019-05-26T00:00:50.135Z,2.30
2019-05-26T00:03:58.817Z,2.10
2019-05-26T00:07:30.312Z,2.30
2019-05-26T00:10:28.149Z,2.20
2019-05-26T00:13:36.776Z,2.60
2019-05-26T00:16:45.416Z,2.27
2019-05-26T00:19:54.239Z,2.40
2019-05-26T00:23:03.110Z,2.30
2019-05-26T00:26:11.643Z,2.30
2019-05-26T00:29:20.347Z,2.33
2019-05-26T00:32:28.886Z,2.27
2019-05-26T00:35:37.579Z,2.27
2019-05-26T00:38:46.227Z,2.13
2019-05-26T00:41:54.865Z,2.30
2019-05-26T00:45:14.689Z,2.60
2019-05-26T00:48:23.267Z,2.33
2019-05-26T00:51:31.901Z,2.47
2019-05-26T00:54:40.511Z,2.50
2019-05-26T00:57:59.413Z,2.30
2019-05-26T01:01:08.123Z,2.67
2019-05-26T01:04:16.726Z,2.80
2019-05-26T01:07:25.382Z,2.57
2019-05-26T01:10:34.050Z,2.80
2019-05-26T01:13:41.084Z,3.20
2019-05-26T01:16:49.714Z,2.63
2019-05-26T01:19:58.429Z,2.60
2019-05-26T01:23:07.178Z,3.03
2019-05-26T01:26:15.822Z,2.40
2019-05-26T01:29:34.960Z,2.87
2019-05-26T01:32:43.718Z,2.60
2019-05-26T01:35:52.514Z,3.13
2019-05-26T01:39:01.608Z,2.80
2019-05-26T01:42:20.491Z,3.10
2019-05-26T01:45:29.307Z,3.10
2019-05-26T01:48:37.945Z,2.67
2019-05-26T01:51:46.629Z,2.90
2019-05-26T01:54:56.237Z,3.13
2019-05-26T01:58:05.436Z,2.87
2019-05-26T02:01:13.964Z,3.87
2019-05-26T02:04:22.700Z,3.33
2019-05-26T02:07:31.906Z,3.40
2019-05-26T02:10:40.840Z,3.87
2019-05-26T02:13:49.495Z,3.90
2019-05-26T02:16:59.294Z,3.90
2019-05-26T02:20:08.794Z,3.77
2019-05-26T02:23:18.144Z,3.90
2019-05-26T02:26:26.800Z,3.43
2019-05-26T02:29:35.834Z,3.67
2019-05-26T02:32:54.946Z,3.60
2019-05-26T02:36:03.573Z,3.17
2019-05-26T02:39:12.401Z,2.87
2019-05-26T02:42:21.009Z,2.97
2019-05-26T02:45:29.744Z,2.67
2019-05-26T02:48:38.513Z,2.87
2019-05-26T02:51:47.244Z,2.50
2019-05-26T02:54:55.790Z,2.50
2019-05-26T02:58:04.431Z,2.67
2019-05-26T03:01:23.596Z,2.87
2019-05-26T03:04:43.381Z,3.00
2019-05-26T03:07:53.512Z,3.07
2019-05-26T03:11:03.054Z,3.70
2019-05-26T03:14:13.105Z,3.00
2019-05-26T03:17:25.015Z,2.93
2019-05-26T03:20:39.990Z,3.53
2019-05-26T03:23:50.936Z,3.43
2019-05-26T03:26:59.564Z,3.00
2019-05-26T03:30:09.920Z,3.87
2019-05-26T03:33:16.587Z,4.03
2019-05-26T03:36:25.313Z,3.60
2019-05-26T03:39:46.152Z,4.20
2019-05-26T03:42:54.477Z,3.80
2019-05-26T03:46:19.703Z,4.30
2019-05-26T03:49:38.728Z,4.30
2019-05-26T03:52:47.343Z,5.07
2019-05-26T03:55:56.078Z,4.57
2019-05-26T03:59:04.772Z,4.80
2019-05-26T04:02:13.428Z,5.67
2019-05-26T04:05:22.075Z,5.17
2019-05-26T04:08:31.836Z,5.17
2019-05-26T04:11:50.879Z,5.50
2019-05-26T04:14:59.553Z,5.73
2019-05-26T04:18:08.190Z,5.13
2019-05-26T04:21:16.835Z,5.63
2019-05-26T04:24:25.503Z,5.27
2019-05-26T04:27:34.040Z,4.87
2019-05-26T04:30:42.715Z,4.77
2019-05-26T04:33:51.336Z,5.07
2019-05-26T04:36:58.708Z,5.13
2019-05-26T04:40:25.075Z,5.80
2019-05-26T04:43:18.010Z,4.87
2019-05-26T04:46:26.664Z,4.73
2019-05-26T04:49:37.445Z,4.50
2019-05-26T04:53:04.561Z,4.73
2019-05-26T04:55:57.137Z,4.70
2019-05-26T04:59:06.288Z,3.90
2019-05-26T05:02:25.278Z,4.00
2019-05-26T05:05:33.850Z,4.60
2019-05-26T05:08:42.600Z,4.20
2019-05-26T05:11:51.284Z,4.50
2019-05-26T05:14:59.933Z,4.10
2019-05-26T05:18:08.677Z,4.40
2019-05-26T05:21:17.356Z,3.90
2019-05-26T05:24:26.020Z,3.87
2019-05-26T05:27:34.694Z,4.57
2019-05-26T05:30:43.387Z,3.70
2019-05-26T05:34:02.202Z,3.63
2019-05-26T05:37:10.866Z,3.73
2019-05-26T05:40:19.486Z,4.07
2019-05-26T05:43:28.143Z,4.30
2019-05-26T05:46:36.779Z,4.10
2019-05-26T05:49:45.558Z,3.73
2019-05-26T05:52:54.257Z,4.33
2019-05-26T05:56:03.030Z,4.00
2019-05-26T05:59:11.799Z,4.13
2019-05-26T06:02:20.457Z,4.30
2019-05-26T06:05:29.097Z,4.90
2019-05-26T06:08:48.053Z,3.87
2019-05-26T06:11:58.147Z,4.23
2019-05-26T06:15:10.613Z,3.73
2019-05-26T06:18:19.283Z,4.20
2019-05-26T06:21:28.007Z,4.30
2019-05-26T06:24:36.645Z,4.67
2019-05-26T06:27:43.813Z,4.10
2019-05-26T06:30:52.351Z,4.43
2019-05-26T06:34:01.014Z,4.77
2019-05-26T06:37:09.640Z,4.47
2019-05-26T06:40:18.528Z,4.27
2019-05-26T06:43:27.190Z,4.90
2019-05-26T06:46:35.820Z,4.90
2019-05-26T06:49:44.639Z,5.30
2019-05-26T06:52:53.306Z,4.87
2019-05-26T06:56:12.430Z,5.10
2019-05-26T06:59:31.397Z,5.10
2019-05-26T07:02:39.937Z,5.43
2019-05-26T07:05:48.586Z,5.20
2019-05-26T07:08:57.277Z,6.53
2019-05-26T07:12:05.833Z,5.63
2019-05-26T07:15:14.530Z,6.27
2019-05-26T07:18:23.166Z,6.00
2019-05-26T07:21:41.946Z,6.33
2019-05-26T07:24:50.579Z,6.60
2019-05-26T07:27:59.451Z,6.87
2019-05-26T07:31:08.017Z,7.00
2019-05-26T07:34:16.599Z,6.67
2019-05-26T07:37:25.243Z,6.80
2019-05-26T07:40:33.823Z,8.17
2019-05-26T07:43:42.347Z,6.70
2019-05-26T07:47:01.660Z,7.00
2019-05-26T07:50:11.313Z,7.50
2019-05-26T07:53:19.995Z,7.10
2019-05-26T07:56:28.511Z,7.33
2019-05-26T07:59:37.080Z,6.50
2019-05-26T08:02:55.947Z,6.43
2019-05-26T08:06:04.771Z,6.57
2019-05-26T08:09:11.959Z,7.67
2019-05-26T08:12:26.831Z,6.73
2019-05-26T08:15:40.065Z,6.80
2019-05-26T08:18:48.612Z,6.77
2019-05-26T08:21:57.301Z,6.03
2019-05-26T08:25:06.321Z,6.80
2019-05-26T08:28:15.012Z,6.33
2019-05-26T08:31:23.683Z,6.33
2019-05-26T08:34:32.345Z,7.23
2019-05-26T08:37:40.929Z,6.47
2019-05-26T08:40:49.488Z,6.50
2019-05-26T08:43:58.109Z,6.80
2019-05-26T08:47:17.137Z,7.10
2019-05-26T08:50:25.876Z,6.93
2019-05-26T08:53:34.522Z,7.50
2019-05-26T08:56:43.154Z,6.23
2019-05-26T08:59:51.926Z,6.63
2019-05-26T09:03:00.548Z,7.07
2019-05-26T09:06:11.113Z,6.93
2019-05-26T09:09:19.708Z,7.27
2019-05-26T09:12:28.236Z,7.00
2019-05-26T09:15:36.750Z,7.60
2019-05-26T09:18:55.763Z,7.43
2019-05-26T09:22:14.589Z,7.53
2019-05-26T09:25:23.263Z,7.17
2019-05-26T09:28:32.004Z,8.40
2019-05-26T09:31:40.726Z,8.37
2019-05-26T09:34:49.305Z,7.90
2019-05-26T09:37:57.863Z,8.17
2019-05-26T09:41:06.412Z,8.07
2019-05-26T09:44:15.014Z,7.73
2019-05-26T09:47:33.964Z,6.97
2019-05-26T09:50:42.555Z,7.43
2019-05-26T09:54:01.336Z,7.90
2019-05-26T09:57:01.293Z,7.67
2019-05-26T10:00:15.888Z,7.60
2019-05-26T10:03:22.547Z,7.37
2019-05-26T10:06:31.116Z,7.87
2019-05-26T10:09:39.674Z,7.60
2019-05-26T10:12:48.206Z,8.90
2019-05-26T10:15:56.759Z,9.40
2019-05-26T10:19:15.792Z,9.60
2019-05-26T10:22:24.597Z,9.67
2019-05-26T10:25:33.329Z,10.80
2019-05-26T10:28:42.075Z,10.87
2019-05-26T10:31:50.671Z,11.03
2019-05-26T10:34:59.216Z,10.80
2019-05-26T10:38:07.906Z,10.83
2019-05-26T10:41:16.578Z,11.37
2019-05-26T10:44:25.371Z,10.50
2019-05-26T10:47:33.948Z,10.30
2019-05-26T10:50:42.704Z,10.03
2019-05-26T10:53:51.246Z,10.33
2019-05-26T10:57:10.192Z,10.63
2019-05-26T11:00:20.870Z,12.20
2019-05-26T11:03:39.920Z,11.93
2019-05-26T11:06:48.645Z,12.30
2019-05-26T11:09:57.382Z,12.87
2019-05-26T11:13:05.961Z,13.80
2019-05-26T11:16:14.509Z,14.60
2019-05-26T11:19:23.108Z,14.77
2019-05-26T11:22:31.658Z,15.07
2019-05-26T11:25:50.428Z,14.10
2019-05-26T11:28:59.038Z,14.43
2019-05-26T11:32:07.619Z,15.37
2019-05-26T11:35:16.419Z,13.70
2019-05-26T11:38:35.129Z,13.83
2019-05-26T11:41:45.004Z,15.00
2019-05-26T11:44:54.765Z,13.33
2019-05-26T11:48:13.670Z,13.83
2019-05-26T11:51:22.367Z,13.53
2019-05-26T11:54:34.343Z,10.93
2019-05-26T11:57:41.361Z,12.70
2019-05-26T12:00:50.037Z,11.37
2019-05-26T12:03:58.615Z,11.17
2019-05-26T12:07:07.227Z,11.37
2019-05-26T12:10:17.537Z,10.30
2019-05-26T12:13:36.825Z,10.77
2019-05-26T12:16:45.721Z,9.53
2019-05-26T12:19:54.405Z,11.03
2019-05-26T12:23:13.137Z,9.63
2019-05-26T12:26:21.799Z,9.70
2019-05-26T12:29:29.636Z,10.63
2019-05-26T12:32:48.571Z,10.47
2019-05-26T12:35:57.280Z,10.50
2019-05-26T12:39:08.807Z,9.63
2019-05-26T12:42:17.381Z,10.60
2019-05-26T12:45:25.998Z,10.17
2019-05-26T12:48:36.622Z,10.50
2019-05-26T12:51:45.072Z,10.23
2019-05-26T12:55:08.103Z,10.40
2019-05-26T12:58:14.792Z,8.43
2019-05-26T13:01:33.468Z,8.47
2019-05-26T13:04:42.024Z,8.10
2019-05-26T13:07:50.769Z,8.43
2019-05-26T13:10:59.580Z,8.10
2019-05-26T13:14:08.326Z,7.90
2019-05-26T13:17:16.943Z,7.07
2019-05-26T13:20:25.736Z,7.60
2019-05-26T13:23:34.375Z,6.67
2019-05-26T13:26:42.945Z,6.83
2019-05-26T13:29:51.491Z,6.50
2019-05-26T13:33:10.466Z,7.23
2019-05-26T13:36:19.131Z,6.30
2019-05-26T13:39:27.858Z,6.90
2019-05-26T13:42:36.448Z,6.80
2019-05-26T13:45:45.067Z,7.30
2019-05-26T13:48:54.014Z,6.77
2019-05-26T13:52:02.549Z,6.20
2019-05-26T13:55:11.873Z,6.40
2019-05-26T13:58:20.417Z,6.63
2019-05-26T14:01:28.982Z,6.43
2019-05-26T14:04:37.687Z,6.20
2019-05-26T14:07:46.515Z,6.30
2019-05-26T14:10:55.087Z,7.47
2019-05-26T14:14:13.948Z,6.37
2019-05-26T14:17:23.668Z,5.13
2019-05-26T14:20:38.053Z,6.17
2019-05-26T14:23:57.130Z,5.10
2019-05-26T14:27:05.885Z,5.67
2019-05-26T14:30:14.599Z,4.70
2019-05-26T14:33:23.344Z,4.67
2019-05-26T14:36:31.885Z,5.20
2019-05-26T14:39:40.171Z,4.67
2019-05-26T14:42:59.025Z,4.73
2019-05-26T14:46:07.726Z,5.40
2019-05-26T14:49:16.356Z,4.93
2019-05-26T14:52:24.887Z,4.67
2019-05-26T14:55:35.065Z,4.20
2019-05-26T14:58:43.701Z,4.17
2019-05-26T15:01:52.578Z,4.77
2019-05-26T15:05:01.263Z,4.60
2019-05-26T15:08:09.925Z,5.27
2019-05-26T15:11:18.477Z,5.40
2019-05-26T15:14:37.317Z,5.50
2019-05-26T15:17:45.864Z,5.57
2019-05-26T15:20:56.151Z,5.13
2019-05-26T15:24:04.903Z,4.80
2019-05-26T15:27:15.890Z,5.93
2019-05-26T15:30:26.832Z,6.00
2019-05-26T15:33:35.419Z,5.60
2019-05-26T15:36:54.241Z,6.03
2019-05-26T15:40:04.222Z,5.50
2019-05-26T15:43:11.282Z,5.80
2019-05-26T15:46:25.335Z,6.10
2019-05-26T15:49:35.818Z,5.43
2019-05-26T15:52:45.459Z,5.10
2019-05-26T15:55:54.010Z,5.50
2019-05-26T15:59:02.748Z,6.40
2019-05-26T16:02:21.591Z,5.80
2019-05-26T16:05:30.304Z,6.03
2019-05-26T16:08:38.964Z,5.20
2019-05-26T16:11:47.470Z,5.93
2019-05-26T16:14:56.690Z,5.47
2019-05-26T16:18:05.330Z,6.43
2019-05-26T16:21:27.036Z,5.00
2019-05-26T16:24:24.113Z,6.20
2019-05-26T16:27:32.659Z,5.03
2019-05-26T16:30:41.219Z,5.30
2019-05-26T16:34:06.093Z,5.50
2019-05-26T16:37:14.732Z,5.20
2019-05-26T16:40:23.451Z,5.33
2019-05-26T16:43:31.995Z,4.60
2019-05-26T16:46:55.165Z,5.60
2019-05-26T16:49:50.914Z,5.30
2019-05-26T16:52:59.456Z,5.33
2019-05-26T16:56:18.204Z,5.50
2019-05-26T16:59:27.152Z,6.23
2019-05-26T17:02:35.688Z,5.50
2019-05-26T17:05:44.338Z,5.50
2019-05-26T17:08:52.964Z,6.70
2019-05-26T17:12:01.510Z,6.73
2019-05-26T17:15:12.266Z,6.33
2019-05-26T17:18:21.311Z,6.77
2019-05-26T17:21:29.927Z,6.97
2019-05-26T17:24:38.557Z,8.00
2019-05-26T17:27:47.120Z,7.77
2019-05-26T17:30:55.768Z,7.57
2019-05-26T17:34:04.301Z,7.33
2019-05-26T17:37:42.818Z,7.90
2019-05-26T17:40:51.578Z,6.93
2019-05-26T17:44:00.103Z,8.07
2019-05-26T17:47:08.622Z,7.77
2019-05-26T17:50:18.415Z,7.40
2019-05-26T17:53:37.227Z,7.50
2019-05-26T17:56:46.007Z,6.57
2019-05-26T17:59:54.570Z,7.57
2019-05-26T18:03:03.228Z,7.13
2019-05-26T18:06:11.834Z,7.63
2019-05-26T18:09:20.454Z,7.10
2019-05-26T18:12:29.071Z,7.50
2019-05-26T18:15:37.756Z,7.20
2019-05-26T18:18:56.529Z,7.93
2019-05-26T18:22:05.403Z,7.37
2019-05-26T18:25:14.432Z,7.53
2019-05-26T18:28:33.755Z,7.63
2019-05-26T18:31:42.566Z,8.27
2019-05-26T18:34:51.433Z,7.73
2019-05-26T18:38:00.045Z,7.03
2019-05-26T18:41:08.554Z,8.07
2019-05-26T18:44:17.100Z,7.60
2019-05-26T18:47:25.690Z,7.60
2019-05-26T18:50:34.283Z,7.90
2019-05-26T18:53:53.135Z,7.53
2019-05-26T18:57:01.735Z,6.53
2019-05-26T19:00:11.176Z,5.90
2019-05-26T19:03:29.984Z,5.00
2019-05-26T19:06:38.608Z,5.07
2019-05-26T19:09:47.396Z,4.73
2019-05-26T19:12:55.940Z,3.57
2019-05-26T19:16:04.524Z,3.50
2019-05-26T19:19:13.239Z,3.30
2019-05-26T19:22:22.138Z,3.40
2019-05-26T19:25:30.841Z,3.37
2019-05-26T19:28:39.635Z,2.60
2019-05-26T19:31:48.190Z,3.10
2019-05-26T19:35:07.581Z,3.37
2019-05-26T19:38:16.356Z,3.07
2019-05-26T19:41:25.060Z,3.43
2019-05-26T19:44:33.806Z,3.73
2019-05-26T19:47:52.783Z,3.23
2019-05-26T19:51:12.506Z,3.30
2019-05-26T19:54:37.394Z,3.00
2019-05-26T19:57:46.135Z,3.70
2019-05-26T20:00:54.784Z,3.80
2019-05-26T20:04:03.311Z,4.03
2019-05-26T20:07:11.867Z,3.90
2019-05-26T20:10:20.627Z,4.60
2019-05-26T20:13:29.185Z,4.10
2019-05-26T20:16:37.744Z,4.40
2019-05-26T20:19:56.580Z,4.33
2019-05-26T20:23:05.248Z,4.67
2019-05-26T20:26:13.817Z,5.00
2019-05-26T20:29:22.424Z,5.80
2019-05-26T20:32:31.108Z,5.23
2019-05-26T20:35:39.657Z,5.73
2019-05-26T20:38:48.294Z,5.50
2019-05-26T20:42:07.347Z,6.13
2019-05-26T20:45:26.643Z,6.00
2019-05-26T20:48:35.271Z,5.60
2019-05-26T20:51:43.915Z,5.83
2019-05-26T20:54:52.454Z,5.60
2019-05-26T20:58:01.054Z,6.10
2019-05-26T21:01:08.102Z,6.07
2019-05-26T21:04:16.747Z,5.73
2019-05-26T21:07:25.281Z,6.13
2019-05-26T21:10:44.057Z,6.37
2019-05-26T21:13:52.607Z,6.73
2019-05-26T21:17:01.298Z,6.90
2019-05-26T21:20:10.440Z,6.67
2019-05-26T21:23:22.508Z,7.50
2019-05-26T21:26:29.223Z,8.40
2019-05-26T21:29:37.905Z,7.70
2019-05-26T21:32:46.448Z,7.97
2019-05-26T21:35:54.999Z,8.30
2019-05-26T21:39:13.845Z,7.97
2019-05-26T21:42:22.413Z,8.50
2019-05-26T21:45:31.132Z,9.00
2019-05-26T21:48:40.014Z,9.17
2019-05-26T21:51:48.644Z,8.43
2019-05-26T21:54:57.168Z,7.97
2019-05-26T21:58:05.872Z,7.83
2019-05-26T22:01:14.463Z,6.07
2019-05-26T22:04:23.058Z,7.20
2019-05-26T22:07:42.491Z,6.43
2019-05-26T22:10:51.233Z,7.17
2019-05-26T22:14:10.117Z,6.50
2019-05-26T22:17:18.660Z,6.40
2019-05-26T22:20:27.366Z,5.80
2019-05-26T22:23:35.977Z,5.30
2019-05-26T22:26:44.520Z,5.00
2019-05-26T22:29:53.247Z,5.17
2019-05-26T22:33:01.992Z,4.10
2019-05-26T22:36:10.590Z,4.00
2019-05-26T22:39:29.435Z,4.63
2019-05-26T22:42:38.031Z,4.20
2019-05-26T22:45:46.580Z,4.17
2019-05-26T22:48:55.236Z,4.10
2019-05-26T22:52:03.829Z,4.33
2019-05-26T22:55:12.765Z,4.10
2019-05-26T22:58:21.340Z,3.93
2019-05-26T23:01:29.849Z,4.10
2019-05-26T23:04:48.770Z,3.50
2019-05-26T23:07:57.628Z,3.17
2019-05-26T23:11:06.391Z,2.77
2019-05-26T23:14:14.942Z,3.33
2019-05-26T23:17:23.716Z,2.67
2019-05-26T23:20:32.336Z,2.83
2019-05-26T23:23:40.938Z,2.80
2019-05-26T23:26:49.933Z,2.43
2019-05-26T23:29:58.505Z,2.33
2019-05-26T23:33:07.205Z,2.13
2019-05-26T23:36:16.062Z,2.30
2019-05-26T23:39:24.951Z,2.10
2019-05-26T23:42:33.722Z,2.30
2019-05-26T23:45:42.276Z,2.37
2019-05-26T23:48:50.956Z,2.30
2019-05-26T23:51:59.521Z,2.00
2019-05-26T23:55:18.407Z,2.40
2019-05-26T23:58:26.973Z,2.40
